sensor_id;sensor_type;location;lat;lon;timestamp;temperature;humidity
32877;DHT22;19226;51.600;8.034;2023-02-15T00:02:05;6.00;99.90
32877;DHT22;19226;51.600;8.034;2023-02-15T00:04:50;5.90;99.90
32877;DHT22;19226;51.600;8.034;2023-02-15T00:07:34;5.80;99.90
32877;DHT22;19226;51.600;8.034;2023-02-15T00:10:19;5.70;99.90
32877;DHT22;19226;51.600;8.034;2023-02-15T00:13:03;5.70;99.90
32877;DHT22;19226;51.600;8.034;2023-02-15T00:15:48;5.70;99.90
32877;DHT22;19226;51.600;8.034;2023-02-15T00:18:33;5.60;99.90
32877;DHT22;19226;51.600;8.034;2023-02-15T00:21:17;5.70;99.90
32877;DHT22;19226;51.600;8.034;2023-02-15T00:24:03;5.60;99.90
32877;DHT22;19226;51.600;8.034;2023-02-15T00:26:48;5.60;99.90
32877;DHT22;19226;51.600;8.034;2023-02-15T00:29:34;5.40;99.90
32877;DHT22;19226;51.600;8.034;2023-02-15T00:32:18;5.40;99.90
32877;DHT22;19226;51.600;8.034;2023-02-15T00:35:03;5.40;99.90
32877;DHT22;19226;51.600;8.034;2023-02-15T00:37:48;5.30;99.90
32877;DHT22;19226;51.600;8.034;2023-02-15T00:40:33;5.30;99.90
32877;DHT22;19226;51.600;8.034;2023-02-15T00:43:17;5.30;99.90
32877;DHT22;19226;51.600;8.034;2023-02-15T00:46:04;5.30;99.90
32877;DHT22;19226;51.600;8.034;2023-02-15T00:48:49;5.30;99.90
32877;DHT22;19226;51.600;8.034;2023-02-15T00:51:34;5.30;99.90
32877;DHT22;19226;51.600;8.034;2023-02-15T00:54:18;5.30;99.90
32877;DHT22;19226;51.600;8.034;2023-02-15T00:57:03;5.30;99.90
32877;DHT22;19226;51.600;8.034;2023-02-15T00:59:47;5.20;99.90
32877;DHT22;19226;51.600;8.034;2023-02-15T01:02:32;5.20;99.90
32877;DHT22;19226;51.600;8.034;2023-02-15T01:05:16;5.00;99.90
32877;DHT22;19226;51.600;8.034;2023-02-15T01:08:01;4.80;99.90
32877;DHT22;19226;51.600;8.034;2023-02-15T01:10:45;4.70;99.90
32877;DHT22;19226;51.600;8.034;2023-02-15T01:13:31;4.70;99.90
32877;DHT22;19226;51.600;8.034;2023-02-15T01:16:16;4.60;99.90
32877;DHT22;19226;51.600;8.034;2023-02-15T01:19:01;4.60;99.90
32877;DHT22;19226;51.600;8.034;2023-02-15T01:21:46;4.60;99.90
32877;DHT22;19226;51.600;8.034;2023-02-15T01:24:31;4.70;99.90
32877;DHT22;19226;51.600;8.034;2023-02-15T01:27:15;4.70;99.90
32877;DHT22;19226;51.600;8.034;2023-02-15T01:30:02;4.60;99.90
32877;DHT22;19226;51.600;8.034;2023-02-15T01:32:48;4.60;99.90
32877;DHT22;19226;51.600;8.034;2023-02-15T01:35:33;4.60;99.90
32877;DHT22;19226;51.600;8.034;2023-02-15T01:38:17;4.60;99.90
32877;DHT22;19226;51.600;8.034;2023-02-15T01:41:02;4.50;99.90
32877;DHT22;19226;51.600;8.034;2023-02-15T01:47:45;4.40;99.90
32877;DHT22;19226;51.600;8.034;2023-02-15T01:50:41;4.30;99.90
32877;DHT22;19226;51.600;8.034;2023-02-15T01:53:31;4.20;99.90
32877;DHT22;19226;51.600;8.034;2023-02-15T01:56:25;4.10;99.90
32877;DHT22;19226;51.600;8.034;2023-02-15T01:59:14;4.10;99.90
32877;DHT22;19226;51.600;8.034;2023-02-15T02:02:01;4.00;99.90
32877;DHT22;19226;51.600;8.034;2023-02-15T02:04:49;4.00;99.90
32877;DHT22;19226;51.600;8.034;2023-02-15T02:07:42;3.90;99.90
32877;DHT22;19226;51.600;8.034;2023-02-15T02:10:28;3.90;99.90
32877;DHT22;19226;51.600;8.034;2023-02-15T02:13:15;3.90;99.90
32877;DHT22;19226;51.600;8.034;2023-02-15T02:16:21;3.80;99.90
32877;DHT22;19226;51.600;8.034;2023-02-15T02:23:38;3.70;99.90
32877;DHT22;19226;51.600;8.034;2023-02-15T02:26:38;3.60;99.90
32877;DHT22;19226;51.600;8.034;2023-02-15T02:35:57;3.30;99.90
32877;DHT22;19226;51.600;8.034;2023-02-15T02:44:46;3.10;99.90
32877;DHT22;19226;51.600;8.034;2023-02-15T02:47:33;3.00;99.90
32877;DHT22;19226;51.600;8.034;2023-02-15T02:50:27;3.00;99.90
32877;DHT22;19226;51.600;8.034;2023-02-15T02:53:12;3.00;99.90
32877;DHT22;19226;51.600;8.034;2023-02-15T02:56:01;3.10;99.90
32877;DHT22;19226;51.600;8.034;2023-02-15T02:59:00;3.10;99.90
32877;DHT22;19226;51.600;8.034;2023-02-15T03:01:48;3.10;99.90
32877;DHT22;19226;51.600;8.034;2023-02-15T03:04:37;3.20;99.90
32877;DHT22;19226;51.600;8.034;2023-02-15T03:07:22;3.20;99.90
32877;DHT22;19226;51.600;8.034;2023-02-15T03:10:09;3.20;99.90
32877;DHT22;19226;51.600;8.034;2023-02-15T03:12:54;3.20;99.90
32877;DHT22;19226;51.600;8.034;2023-02-15T03:15:40;3.20;99.90
32877;DHT22;19226;51.600;8.034;2023-02-15T03:18:51;3.20;99.90
32877;DHT22;19226;51.600;8.034;2023-02-15T03:21:43;3.20;99.90
32877;DHT22;19226;51.600;8.034;2023-02-15T03:24:44;3.20;99.90
32877;DHT22;19226;51.600;8.034;2023-02-15T03:27:43;3.30;99.90
32877;DHT22;19226;51.600;8.034;2023-02-15T03:30:29;3.10;99.90
32877;DHT22;19226;51.600;8.034;2023-02-15T03:33:15;2.70;99.90
32877;DHT22;19226;51.600;8.034;2023-02-15T03:39:35;2.40;99.90
32877;DHT22;19226;51.600;8.034;2023-02-15T03:42:36;2.30;99.90
32877;DHT22;19226;51.600;8.034;2023-02-15T03:45:26;2.40;99.90
32877;DHT22;19226;51.600;8.034;2023-02-15T03:48:12;2.40;99.90
32877;DHT22;19226;51.600;8.034;2023-02-15T03:51:02;2.50;99.90
32877;DHT22;19226;51.600;8.034;2023-02-15T03:54:12;2.50;99.90
32877;DHT22;19226;51.600;8.034;2023-02-15T03:56:58;2.60;99.90
32877;DHT22;19226;51.600;8.034;2023-02-15T04:00:04;2.50;99.90
32877;DHT22;19226;51.600;8.034;2023-02-15T04:06:01;2.60;99.90
32877;DHT22;19226;51.600;8.034;2023-02-15T04:08:46;2.50;99.90
32877;DHT22;19226;51.600;8.034;2023-02-15T04:11:49;2.50;99.90
32877;DHT22;19226;51.600;8.034;2023-02-15T04:14:33;2.50;99.90
32877;DHT22;19226;51.600;8.034;2023-02-15T04:17:37;2.50;99.90
32877;DHT22;19226;51.600;8.034;2023-02-15T04:20:21;2.30;99.90
32877;DHT22;19226;51.600;8.034;2023-02-15T04:23:24;2.20;99.90
32877;DHT22;19226;51.600;8.034;2023-02-15T04:26:27;2.20;99.90
32877;DHT22;19226;51.600;8.034;2023-02-15T04:29:12;2.10;99.90
32877;DHT22;19226;51.600;8.034;2023-02-15T04:31:58;2.20;99.90
32877;DHT22;19226;51.600;8.034;2023-02-15T04:34:42;2.10;99.90
32877;DHT22;19226;51.600;8.034;2023-02-15T04:37:27;2.20;99.90
32877;DHT22;19226;51.600;8.034;2023-02-15T04:40:13;2.10;99.90
32877;DHT22;19226;51.600;8.034;2023-02-15T04:42:58;2.00;99.90
32877;DHT22;19226;51.600;8.034;2023-02-15T04:45:50;2.00;99.90
32877;DHT22;19226;51.600;8.034;2023-02-15T04:48:34;1.90;99.90
32877;DHT22;19226;51.600;8.034;2023-02-15T04:51:19;2.00;99.90
32877;DHT22;19226;51.600;8.034;2023-02-15T04:54:04;1.90;99.90
32877;DHT22;19226;51.600;8.034;2023-02-15T04:56:48;1.90;99.90
32877;DHT22;19226;51.600;8.034;2023-02-15T04:59:33;2.00;99.90
32877;DHT22;19226;51.600;8.034;2023-02-15T05:02:17;2.00;99.90
32877;DHT22;19226;51.600;8.034;2023-02-15T05:05:02;2.00;99.90
32877;DHT22;19226;51.600;8.034;2023-02-15T05:07:46;2.00;99.90
32877;DHT22;19226;51.600;8.034;2023-02-15T05:10:31;2.00;99.90
32877;DHT22;19226;51.600;8.034;2023-02-15T05:13:15;1.90;99.90
32877;DHT22;19226;51.600;8.034;2023-02-15T05:16:00;1.90;99.90
32877;DHT22;19226;51.600;8.034;2023-02-15T05:18:45;1.90;99.90
32877;DHT22;19226;51.600;8.034;2023-02-15T05:21:30;1.70;99.90
32877;DHT22;19226;51.600;8.034;2023-02-15T05:24:15;1.70;99.90
32877;DHT22;19226;51.600;8.034;2023-02-15T05:27:21;1.80;99.90
32877;DHT22;19226;51.600;8.034;2023-02-15T05:30:24;1.80;99.90
32877;DHT22;19226;51.600;8.034;2023-02-15T05:33:09;1.80;99.90
32877;DHT22;19226;51.600;8.034;2023-02-15T05:35:53;1.80;99.90
32877;DHT22;19226;51.600;8.034;2023-02-15T05:38:38;1.80;99.90
32877;DHT22;19226;51.600;8.034;2023-02-15T05:41:23;1.80;99.90
32877;DHT22;19226;51.600;8.034;2023-02-15T05:44:08;1.80;99.90
32877;DHT22;19226;51.600;8.034;2023-02-15T05:46:52;1.80;99.90
32877;DHT22;19226;51.600;8.034;2023-02-15T05:49:37;1.80;99.90
32877;DHT22;19226;51.600;8.034;2023-02-15T05:52:21;1.80;99.90
32877;DHT22;19226;51.600;8.034;2023-02-15T05:55:06;1.70;99.90
32877;DHT22;19226;51.600;8.034;2023-02-15T05:57:52;1.70;99.90
32877;DHT22;19226;51.600;8.034;2023-02-15T06:00:38;1.70;99.90
32877;DHT22;19226;51.600;8.034;2023-02-15T06:03:23;1.70;99.90
32877;DHT22;19226;51.600;8.034;2023-02-15T06:06:10;1.70;99.90
32877;DHT22;19226;51.600;8.034;2023-02-15T06:08:54;1.60;99.90
32877;DHT22;19226;51.600;8.034;2023-02-15T06:11:39;1.60;99.90
32877;DHT22;19226;51.600;8.034;2023-02-15T06:14:23;1.60;99.90
32877;DHT22;19226;51.600;8.034;2023-02-15T06:17:08;1.60;99.90
32877;DHT22;19226;51.600;8.034;2023-02-15T06:19:52;1.60;99.90
32877;DHT22;19226;51.600;8.034;2023-02-15T06:22:37;1.60;99.90
32877;DHT22;19226;51.600;8.034;2023-02-15T06:25:21;1.60;99.90
32877;DHT22;19226;51.600;8.034;2023-02-15T06:28:06;1.50;99.90
32877;DHT22;19226;51.600;8.034;2023-02-15T06:30:51;1.60;99.90
32877;DHT22;19226;51.600;8.034;2023-02-15T06:33:36;1.50;99.90
32877;DHT22;19226;51.600;8.034;2023-02-15T06:36:21;1.60;99.90
32877;DHT22;19226;51.600;8.034;2023-02-15T06:39:05;1.50;99.90
32877;DHT22;19226;51.600;8.034;2023-02-15T06:41:50;1.30;99.90
32877;DHT22;19226;51.600;8.034;2023-02-15T06:44:34;1.20;99.90
32877;DHT22;19226;51.600;8.034;2023-02-15T06:47:19;1.30;99.90
32877;DHT22;19226;51.600;8.034;2023-02-15T06:50:05;1.20;99.90
32877;DHT22;19226;51.600;8.034;2023-02-15T06:52:52;1.30;99.90
32877;DHT22;19226;51.600;8.034;2023-02-15T06:55:39;1.30;99.90
32877;DHT22;19226;51.600;8.034;2023-02-15T06:58:23;1.20;99.90
32877;DHT22;19226;51.600;8.034;2023-02-15T07:01:09;1.30;99.90
32877;DHT22;19226;51.600;8.034;2023-02-15T07:03:53;1.20;99.90
32877;DHT22;19226;51.600;8.034;2023-02-15T07:06:38;1.20;99.90
32877;DHT22;19226;51.600;8.034;2023-02-15T07:09:23;1.30;99.90
32877;DHT22;19226;51.600;8.034;2023-02-15T07:12:11;1.30;99.90
32877;DHT22;19226;51.600;8.034;2023-02-15T07:15:17;1.30;99.90
32877;DHT22;19226;51.600;8.034;2023-02-15T07:18:01;1.40;99.90
32877;DHT22;19226;51.600;8.034;2023-02-15T07:20:46;1.30;99.90
32877;DHT22;19226;51.600;8.034;2023-02-15T07:23:31;1.40;99.90
32877;DHT22;19226;51.600;8.034;2023-02-15T07:26:15;1.30;99.90
32877;DHT22;19226;51.600;8.034;2023-02-15T07:29:00;1.20;99.90
32877;DHT22;19226;51.600;8.034;2023-02-15T07:31:44;1.10;99.90
32877;DHT22;19226;51.600;8.034;2023-02-15T07:34:29;1.10;99.90
32877;DHT22;19226;51.600;8.034;2023-02-15T07:37:13;1.20;99.90
32877;DHT22;19226;51.600;8.034;2023-02-15T07:39:58;1.30;99.90
32877;DHT22;19226;51.600;8.034;2023-02-15T07:42:42;1.40;99.90
32877;DHT22;19226;51.600;8.034;2023-02-15T07:45:27;1.50;99.90
32877;DHT22;19226;51.600;8.034;2023-02-15T07:48:11;1.50;99.90
32877;DHT22;19226;51.600;8.034;2023-02-15T07:51:00;1.60;99.90
32877;DHT22;19226;51.600;8.034;2023-02-15T07:53:45;1.60;99.90
32877;DHT22;19226;51.600;8.034;2023-02-15T07:56:31;1.60;99.90
32877;DHT22;19226;51.600;8.034;2023-02-15T07:59:16;1.60;99.90
32877;DHT22;19226;51.600;8.034;2023-02-15T08:02:01;1.60;99.90
32877;DHT22;19226;51.600;8.034;2023-02-15T08:04:45;1.60;99.90
32877;DHT22;19226;51.600;8.034;2023-02-15T08:07:30;1.70;99.90
32877;DHT22;19226;51.600;8.034;2023-02-15T08:10:14;1.70;99.90
32877;DHT22;19226;51.600;8.034;2023-02-15T08:13:19;1.70;99.90
32877;DHT22;19226;51.600;8.034;2023-02-15T08:16:03;1.80;99.90
32877;DHT22;19226;51.600;8.034;2023-02-15T08:18:48;1.90;99.90
32877;DHT22;19226;51.600;8.034;2023-02-15T08:21:34;2.00;99.90
32877;DHT22;19226;51.600;8.034;2023-02-15T08:24:20;2.10;99.90
32877;DHT22;19226;51.600;8.034;2023-02-15T08:27:10;2.10;99.90
32877;DHT22;19226;51.600;8.034;2023-02-15T08:29:55;2.20;99.90
32877;DHT22;19226;51.600;8.034;2023-02-15T08:32:40;2.30;99.90
32877;DHT22;19226;51.600;8.034;2023-02-15T08:35:24;2.40;99.90
32877;DHT22;19226;51.600;8.034;2023-02-15T08:38:09;2.50;99.90
32877;DHT22;19226;51.600;8.034;2023-02-15T08:40:53;2.60;99.90
32877;DHT22;19226;51.600;8.034;2023-02-15T08:43:38;2.60;99.90
32877;DHT22;19226;51.600;8.034;2023-02-15T08:46:26;2.80;99.90
32877;DHT22;19226;51.600;8.034;2023-02-15T08:49:13;2.90;99.90
32877;DHT22;19226;51.600;8.034;2023-02-15T08:51:59;3.00;99.90
32877;DHT22;19226;51.600;8.034;2023-02-15T08:54:43;3.10;99.90
32877;DHT22;19226;51.600;8.034;2023-02-15T08:57:28;3.20;99.90
32877;DHT22;19226;51.600;8.034;2023-02-15T09:00:13;3.30;99.90
32877;DHT22;19226;51.600;8.034;2023-02-15T09:02:58;3.50;99.90
32877;DHT22;19226;51.600;8.034;2023-02-15T09:05:43;3.60;99.90
32877;DHT22;19226;51.600;8.034;2023-02-15T09:08:28;3.80;99.90
32877;DHT22;19226;51.600;8.034;2023-02-15T09:11:16;3.90;99.90
32877;DHT22;19226;51.600;8.034;2023-02-15T09:14:20;4.00;99.90
32877;DHT22;19226;51.600;8.034;2023-02-15T09:17:05;4.20;99.90
32877;DHT22;19226;51.600;8.034;2023-02-15T09:19:50;4.30;99.90
32877;DHT22;19226;51.600;8.034;2023-02-15T09:22:34;4.50;99.90
32877;DHT22;19226;51.600;8.034;2023-02-15T09:25:19;4.70;99.90
32877;DHT22;19226;51.600;8.034;2023-02-15T09:28:04;4.90;99.90
32877;DHT22;19226;51.600;8.034;2023-02-15T09:30:48;5.10;99.90
32877;DHT22;19226;51.600;8.034;2023-02-15T09:33:34;5.20;99.90
32877;DHT22;19226;51.600;8.034;2023-02-15T09:36:24;5.40;99.90
32877;DHT22;19226;51.600;8.034;2023-02-15T09:39:19;5.50;99.90
32877;DHT22;19226;51.600;8.034;2023-02-15T09:45:28;5.90;99.90
32877;DHT22;19226;51.600;8.034;2023-02-15T09:48:51;6.20;99.90
32877;DHT22;19226;51.600;8.034;2023-02-15T09:51:58;6.40;99.90
32877;DHT22;19226;51.600;8.034;2023-02-15T09:54:56;6.60;99.90
32877;DHT22;19226;51.600;8.034;2023-02-15T09:57:57;6.80;99.90
32877;DHT22;19226;51.600;8.034;2023-02-15T10:01:09;7.10;99.90
32877;DHT22;19226;51.600;8.034;2023-02-15T10:19:02;8.30;99.90
32877;DHT22;19226;51.600;8.034;2023-02-15T10:22:04;8.50;99.90
32877;DHT22;19226;51.600;8.034;2023-02-15T10:28:18;8.90;99.90
32877;DHT22;19226;51.600;8.034;2023-02-15T10:34:22;9.20;99.90
32877;DHT22;19226;51.600;8.034;2023-02-15T11:06:25;11.30;99.90
32877;DHT22;19226;51.600;8.034;2023-02-15T11:08:56;11.50;99.90
32877;DHT22;19226;51.600;8.034;2023-02-15T11:11:53;11.70;99.90
32877;DHT22;19226;51.600;8.034;2023-02-15T11:14:50;11.90;99.90
32877;DHT22;19226;51.600;8.034;2023-02-15T11:17:46;12.10;99.90
32877;DHT22;19226;51.600;8.034;2023-02-15T11:20:49;12.20;99.90
32877;DHT22;19226;51.600;8.034;2023-02-15T11:23:38;12.30;99.90
32877;DHT22;19226;51.600;8.034;2023-02-15T11:32:46;12.90;99.90
32877;DHT22;19226;51.600;8.034;2023-02-15T11:35:39;13.00;99.90
32877;DHT22;19226;51.600;8.034;2023-02-15T11:38:29;13.20;99.90
32877;DHT22;19226;51.600;8.034;2023-02-15T11:41:22;13.30;99.90
32877;DHT22;19226;51.600;8.034;2023-02-15T11:44:16;13.60;99.90
32877;DHT22;19226;51.600;8.034;2023-02-15T11:47:02;13.80;99.90
32877;DHT22;19226;51.600;8.034;2023-02-15T11:49:48;14.00;99.90
32877;DHT22;19226;51.600;8.034;2023-02-15T11:52:33;14.10;99.90
32877;DHT22;19226;51.600;8.034;2023-02-15T11:55:22;14.30;99.90
32877;DHT22;19226;51.600;8.034;2023-02-15T11:58:28;14.30;99.90
32877;DHT22;19226;51.600;8.034;2023-02-15T12:01:35;14.50;99.90
32877;DHT22;19226;51.600;8.034;2023-02-15T12:07:19;14.70;99.90
32877;DHT22;19226;51.600;8.034;2023-02-15T12:13:13;15.00;99.90
32877;DHT22;19226;51.600;8.034;2023-02-15T12:16:05;15.10;99.90
32877;DHT22;19226;51.600;8.034;2023-02-15T12:18:53;15.20;99.90
32877;DHT22;19226;51.600;8.034;2023-02-15T12:21:41;15.30;99.90
32877;DHT22;19226;51.600;8.034;2023-02-15T12:24:32;15.50;99.90
32877;DHT22;19226;51.600;8.034;2023-02-15T12:27:19;15.50;99.90
32877;DHT22;19226;51.600;8.034;2023-02-15T12:30:16;15.60;99.90
32877;DHT22;19226;51.600;8.034;2023-02-15T12:33:36;15.80;99.90
32877;DHT22;19226;51.600;8.034;2023-02-15T12:36:32;16.00;99.90
32877;DHT22;19226;51.600;8.034;2023-02-15T12:39:27;16.00;99.90
32877;DHT22;19226;51.600;8.034;2023-02-15T12:42:16;16.10;99.90
32877;DHT22;19226;51.600;8.034;2023-02-15T12:45:02;16.10;99.90
32877;DHT22;19226;51.600;8.034;2023-02-15T12:48:08;16.20;99.90
32877;DHT22;19226;51.600;8.034;2023-02-15T12:51:07;16.40;99.90
32877;DHT22;19226;51.600;8.034;2023-02-15T12:53:52;16.50;99.90
32877;DHT22;19226;51.600;8.034;2023-02-15T12:56:36;16.60;99.90
32877;DHT22;19226;51.600;8.034;2023-02-15T12:59:22;16.60;99.90
32877;DHT22;19226;51.600;8.034;2023-02-15T13:02:12;16.70;99.90
32877;DHT22;19226;51.600;8.034;2023-02-15T13:08:04;17.00;99.90
32877;DHT22;19226;51.600;8.034;2023-02-15T13:11:13;17.10;99.90
32877;DHT22;19226;51.600;8.034;2023-02-15T13:14:42;17.20;99.90
32877;DHT22;19226;51.600;8.034;2023-02-15T13:17:24;17.20;99.90
32877;DHT22;19226;51.600;8.034;2023-02-15T13:20:18;17.10;99.90
32877;DHT22;19226;51.600;8.034;2023-02-15T13:23:21;17.30;99.90
32877;DHT22;19226;51.600;8.034;2023-02-15T13:26:14;17.50;99.90
32877;DHT22;19226;51.600;8.034;2023-02-15T13:29:06;17.40;99.90
32877;DHT22;19226;51.600;8.034;2023-02-15T13:31:54;17.40;99.90
32877;DHT22;19226;51.600;8.034;2023-02-15T13:34:39;17.50;99.90
32877;DHT22;19226;51.600;8.034;2023-02-15T13:40:55;17.80;99.90
32877;DHT22;19226;51.600;8.034;2023-02-15T13:43:46;17.80;99.90
32877;DHT22;19226;51.600;8.034;2023-02-15T13:46:45;17.70;99.90
32877;DHT22;19226;51.600;8.034;2023-02-15T13:59:58;18.00;99.90
32877;DHT22;19226;51.600;8.034;2023-02-15T14:11:37;18.20;99.90
32877;DHT22;19226;51.600;8.034;2023-02-15T14:17:32;18.40;99.90
32877;DHT22;19226;51.600;8.034;2023-02-15T14:20:25;18.20;99.90
32877;DHT22;19226;51.600;8.034;2023-02-15T14:23:41;18.00;99.90
32877;DHT22;19226;51.600;8.034;2023-02-15T14:30:17;18.00;99.90
32877;DHT22;19226;51.600;8.034;2023-02-15T14:33:10;18.00;99.90
32877;DHT22;19226;51.600;8.034;2023-02-15T14:36:01;18.00;99.90
32877;DHT22;19226;51.600;8.034;2023-02-15T14:39:01;18.00;99.90
32877;DHT22;19226;51.600;8.034;2023-02-15T14:41:53;18.00;99.90
32877;DHT22;19226;51.600;8.034;2023-02-15T14:44:50;18.20;99.90
32877;DHT22;19226;51.600;8.034;2023-02-15T14:47:46;18.30;99.90
32877;DHT22;19226;51.600;8.034;2023-02-15T14:50:39;18.20;99.90
32877;DHT22;19226;51.600;8.034;2023-02-15T14:53:33;18.40;99.90
32877;DHT22;19226;51.600;8.034;2023-02-15T14:56:22;18.50;99.90
32877;DHT22;19226;51.600;8.034;2023-02-15T15:05:17;18.60;99.90
32877;DHT22;19226;51.600;8.034;2023-02-15T15:08:04;18.60;99.90
32877;DHT22;19226;51.600;8.034;2023-02-15T15:10:49;18.60;99.90
32877;DHT22;19226;51.600;8.034;2023-02-15T15:13:36;18.60;99.90
32877;DHT22;19226;51.600;8.034;2023-02-15T15:16:48;18.40;99.90
32877;DHT22;19226;51.600;8.034;2023-02-15T15:19:56;18.30;99.90
32877;DHT22;19226;51.600;8.034;2023-02-15T15:22:42;18.20;99.90
32877;DHT22;19226;51.600;8.034;2023-02-15T15:38:07;17.30;99.90
32877;DHT22;19226;51.600;8.034;2023-02-15T15:51:27;16.80;99.90
32877;DHT22;19226;51.600;8.034;2023-02-15T15:54:21;16.70;99.90
32877;DHT22;19226;51.600;8.034;2023-02-15T15:57:28;16.60;99.90
32877;DHT22;19226;51.600;8.034;2023-02-15T16:03:26;16.60;99.90
32877;DHT22;19226;51.600;8.034;2023-02-15T16:06:13;16.50;99.90
32877;DHT22;19226;51.600;8.034;2023-02-15T16:09:17;16.30;99.90
32877;DHT22;19226;51.600;8.034;2023-02-15T16:12:02;16.30;99.90
32877;DHT22;19226;51.600;8.034;2023-02-15T16:14:49;16.20;99.90
32877;DHT22;19226;51.600;8.034;2023-02-15T16:17:35;16.00;99.90
32877;DHT22;19226;51.600;8.034;2023-02-15T16:20:31;15.90;99.90
32877;DHT22;19226;51.600;8.034;2023-02-15T16:29:17;15.30;99.90
32877;DHT22;19226;51.600;8.034;2023-02-15T16:32:20;15.20;99.90
32877;DHT22;19226;51.600;8.034;2023-02-15T16:35:14;15.10;99.90
32877;DHT22;19226;51.600;8.034;2023-02-15T16:37:59;15.00;99.90
32877;DHT22;19226;51.600;8.034;2023-02-15T16:40:55;14.80;99.90
32877;DHT22;19226;51.600;8.034;2023-02-15T16:43:44;14.80;99.90
32877;DHT22;19226;51.600;8.034;2023-02-15T16:46:42;14.70;99.90
32877;DHT22;19226;51.600;8.034;2023-02-15T16:49:28;14.60;99.90
32877;DHT22;19226;51.600;8.034;2023-02-15T16:52:19;14.50;99.90
32877;DHT22;19226;51.600;8.034;2023-02-15T16:55:05;14.40;99.90
32877;DHT22;19226;51.600;8.034;2023-02-15T16:57:54;14.30;99.90
32877;DHT22;19226;51.600;8.034;2023-02-15T17:00:39;14.20;99.90
32877;DHT22;19226;51.600;8.034;2023-02-15T17:03:25;14.10;99.90
32877;DHT22;19226;51.600;8.034;2023-02-15T17:06:24;14.00;99.90
32877;DHT22;19226;51.600;8.034;2023-02-15T17:09:16;13.90;99.90
32877;DHT22;19226;51.600;8.034;2023-02-15T17:12:09;13.70;99.90
32877;DHT22;19226;51.600;8.034;2023-02-15T17:14:54;13.60;99.90
32877;DHT22;19226;51.600;8.034;2023-02-15T17:17:39;13.50;99.90
32877;DHT22;19226;51.600;8.034;2023-02-15T17:20:25;13.50;99.90
32877;DHT22;19226;51.600;8.034;2023-02-15T17:23:31;13.40;99.90
32877;DHT22;19226;51.600;8.034;2023-02-15T17:26:20;13.30;99.90
32877;DHT22;19226;51.600;8.034;2023-02-15T17:29:36;13.10;99.90
32877;DHT22;19226;51.600;8.034;2023-02-15T17:32:24;13.00;99.90
32877;DHT22;19226;51.600;8.034;2023-02-15T17:35:29;12.80;99.90
32877;DHT22;19226;51.600;8.034;2023-02-15T17:38:19;12.70;99.90
32877;DHT22;19226;51.600;8.034;2023-02-15T17:41:04;12.60;99.90
32877;DHT22;19226;51.600;8.034;2023-02-15T17:43:48;12.50;99.90
32877;DHT22;19226;51.600;8.034;2023-02-15T17:46:35;12.40;99.90
32877;DHT22;19226;51.600;8.034;2023-02-15T17:49:25;12.30;99.90
32877;DHT22;19226;51.600;8.034;2023-02-15T17:52:17;12.10;99.90
32877;DHT22;19226;51.600;8.034;2023-02-15T17:55:12;12.00;99.90
32877;DHT22;19226;51.600;8.034;2023-02-15T17:58:17;11.90;99.90
32877;DHT22;19226;51.600;8.034;2023-02-15T18:01:16;11.70;99.90
32877;DHT22;19226;51.600;8.034;2023-02-15T18:04:22;11.60;99.90
32877;DHT22;19226;51.600;8.034;2023-02-15T18:07:25;11.50;99.90
32877;DHT22;19226;51.600;8.034;2023-02-15T18:10:28;11.40;99.90
32877;DHT22;19226;51.600;8.034;2023-02-15T18:13:31;11.30;99.90
32877;DHT22;19226;51.600;8.034;2023-02-15T18:16:20;11.20;99.90
32877;DHT22;19226;51.600;8.034;2023-02-15T18:19:10;11.10;99.90
32877;DHT22;19226;51.600;8.034;2023-02-15T18:21:57;11.10;99.90
32877;DHT22;19226;51.600;8.034;2023-02-15T18:24:42;11.10;99.90
32877;DHT22;19226;51.600;8.034;2023-02-15T18:27:27;11.10;99.90
32877;DHT22;19226;51.600;8.034;2023-02-15T18:30:17;11.10;99.90
32877;DHT22;19226;51.600;8.034;2023-02-15T18:33:02;11.10;99.90
32877;DHT22;19226;51.600;8.034;2023-02-15T18:35:47;11.00;99.90
32877;DHT22;19226;51.600;8.034;2023-02-15T18:38:34;10.90;99.90
32877;DHT22;19226;51.600;8.034;2023-02-15T18:41:20;10.90;99.90
32877;DHT22;19226;51.600;8.034;2023-02-15T18:44:10;10.80;99.90
32877;DHT22;19226;51.600;8.034;2023-02-15T18:46:55;10.80;99.90
32877;DHT22;19226;51.600;8.034;2023-02-15T18:49:40;10.80;99.90
32877;DHT22;19226;51.600;8.034;2023-02-15T18:52:27;10.70;99.90
32877;DHT22;19226;51.600;8.034;2023-02-15T18:55:21;10.70;99.90
32877;DHT22;19226;51.600;8.034;2023-02-15T18:58:18;10.60;99.90
32877;DHT22;19226;51.600;8.034;2023-02-15T19:01:03;10.60;99.90
32877;DHT22;19226;51.600;8.034;2023-02-15T19:03:50;10.60;99.90
32877;DHT22;19226;51.600;8.034;2023-02-15T19:06:36;10.60;99.90
32877;DHT22;19226;51.600;8.034;2023-02-15T19:09:23;10.50;99.90
32877;DHT22;19226;51.600;8.034;2023-02-15T19:12:11;10.40;99.90
32877;DHT22;19226;51.600;8.034;2023-02-15T19:14:56;10.40;99.90
32877;DHT22;19226;51.600;8.034;2023-02-15T19:17:41;10.30;99.90
32877;DHT22;19226;51.600;8.034;2023-02-15T19:20:30;10.30;99.90
32877;DHT22;19226;51.600;8.034;2023-02-15T19:23:18;10.20;99.90
32877;DHT22;19226;51.600;8.034;2023-02-15T19:26:04;10.10;99.90
32877;DHT22;19226;51.600;8.034;2023-02-15T19:28:49;10.10;99.90
32877;DHT22;19226;51.600;8.034;2023-02-15T19:31:34;10.10;99.90
32877;DHT22;19226;51.600;8.034;2023-02-15T19:34:18;10.00;99.90
32877;DHT22;19226;51.600;8.034;2023-02-15T19:37:04;10.00;99.90
32877;DHT22;19226;51.600;8.034;2023-02-15T19:39:49;9.90;99.90
32877;DHT22;19226;51.600;8.034;2023-02-15T19:42:34;9.90;99.90
32877;DHT22;19226;51.600;8.034;2023-02-15T19:45:20;9.90;99.90
32877;DHT22;19226;51.600;8.034;2023-02-15T19:48:05;9.90;99.90
32877;DHT22;19226;51.600;8.034;2023-02-15T19:50:50;9.90;99.90
32877;DHT22;19226;51.600;8.034;2023-02-15T19:53:36;9.80;99.90
32877;DHT22;19226;51.600;8.034;2023-02-15T19:56:21;9.80;99.90
32877;DHT22;19226;51.600;8.034;2023-02-15T19:59:30;9.70;99.90
32877;DHT22;19226;51.600;8.034;2023-02-15T20:02:16;9.70;99.90
32877;DHT22;19226;51.600;8.034;2023-02-15T20:05:03;9.70;99.90
32877;DHT22;19226;51.600;8.034;2023-02-15T20:07:50;9.60;99.90
32877;DHT22;19226;51.600;8.034;2023-02-15T20:10:35;9.70;99.90
32877;DHT22;19226;51.600;8.034;2023-02-15T20:13:20;9.60;99.90
32877;DHT22;19226;51.600;8.034;2023-02-15T20:16:05;9.60;99.90
32877;DHT22;19226;51.600;8.034;2023-02-15T20:18:51;9.60;99.90
32877;DHT22;19226;51.600;8.034;2023-02-15T20:21:35;9.60;99.90
32877;DHT22;19226;51.600;8.034;2023-02-15T20:24:21;9.60;99.90
32877;DHT22;19226;51.600;8.034;2023-02-15T20:27:15;9.60;99.90
32877;DHT22;19226;51.600;8.034;2023-02-15T20:30:00;9.50;99.90
32877;DHT22;19226;51.600;8.034;2023-02-15T20:32:44;9.50;99.90
32877;DHT22;19226;51.600;8.034;2023-02-15T20:35:29;9.50;99.90
32877;DHT22;19226;51.600;8.034;2023-02-15T20:38:26;9.40;99.90
32877;DHT22;19226;51.600;8.034;2023-02-15T20:41:17;9.40;99.90
32877;DHT22;19226;51.600;8.034;2023-02-15T20:44:23;9.30;99.90
32877;DHT22;19226;51.600;8.034;2023-02-15T20:47:08;9.30;99.90